createdAt,value
2022-11-26T00:01:44.049Z,6.60
2022-11-26T00:04:10.850Z,6.50
2022-11-26T00:06:41.691Z,6.40
2022-11-26T00:09:18.903Z,6.30
2022-11-26T00:11:48.761Z,6.20
2022-11-26T00:14:17.266Z,6.20
2022-11-26T00:16:45.043Z,6.10
2022-11-26T00:19:11.996Z,6.10
2022-11-26T00:21:42.228Z,6.10
2022-11-26T00:24:29.683Z,6.10
2022-11-26T00:26:59.746Z,6.20
2022-11-26T00:29:26.564Z,6.20
2022-11-26T00:31:53.443Z,6.10
2022-11-26T00:34:20.316Z,6.10
2022-11-26T00:36:48.321Z,6.00
2022-11-26T00:39:24.423Z,5.80
2022-11-26T00:41:53.250Z,5.70
2022-11-26T00:44:25.867Z,5.60
2022-11-26T00:46:53.007Z,5.60
2022-11-26T00:49:20.960Z,5.60
2022-11-26T00:51:48.123Z,5.70
2022-11-26T00:54:19.206Z,5.80
2022-11-26T00:56:48.128Z,5.80
2022-11-26T00:59:20.410Z,5.90
2022-11-26T01:01:47.649Z,6.00
2022-11-26T01:04:14.642Z,6.00
2022-11-26T01:06:44.695Z,5.90
2022-11-26T01:09:20.163Z,6.00
2022-11-26T01:11:53.480Z,5.90
2022-11-26T01:14:24.554Z,5.90
2022-11-26T01:16:57.151Z,5.90
2022-11-26T01:19:24.127Z,5.80
2022-11-26T01:21:50.962Z,5.80
2022-11-26T01:24:17.807Z,5.70
2022-11-26T01:26:45.492Z,5.70
2022-11-26T01:29:19.801Z,5.70
2022-11-26T01:31:47.310Z,5.70
2022-11-26T01:34:14.502Z,5.80
2022-11-26T01:36:42.426Z,5.70
2022-11-26T01:39:20.819Z,5.70
2022-11-26T01:42:19.547Z,5.70
2022-11-26T01:44:46.403Z,5.60
2022-11-26T01:47:27.713Z,5.60
2022-11-26T01:50:31.126Z,5.60
2022-11-26T01:53:11.226Z,5.60
2022-11-26T01:55:51.425Z,5.60
2022-11-26T01:58:28.126Z,5.70
2022-11-26T02:00:55.823Z,5.70
2022-11-26T02:03:24.012Z,5.70
2022-11-26T02:06:08.542Z,5.60
2022-11-26T02:08:36.556Z,5.50
2022-11-26T02:11:24.810Z,5.50
2022-11-26T02:13:58.535Z,5.50
2022-11-26T02:17:13.084Z,5.50
2022-11-26T02:20:05.323Z,5.60
2022-11-26T02:22:50.035Z,5.70
2022-11-26T02:26:03.849Z,5.80
2022-11-26T02:29:17.321Z,5.90
2022-11-26T02:32:03.389Z,5.90
2022-11-26T02:34:45.946Z,5.90
2022-11-26T02:37:25.413Z,5.90
2022-11-26T02:39:52.256Z,5.80
2022-11-26T02:42:35.266Z,5.80
2022-11-26T02:45:11.298Z,5.70
2022-11-26T02:47:43.069Z,5.70
2022-11-26T02:50:20.721Z,5.70
2022-11-26T02:52:51.162Z,5.70
2022-11-26T02:55:22.373Z,5.70
2022-11-26T02:57:51.895Z,5.70
2022-11-26T03:00:20.270Z,5.60
2022-11-26T03:02:52.418Z,5.60
2022-11-26T03:05:20.497Z,5.50
2022-11-26T03:07:51.836Z,5.50
2022-11-26T03:10:26.527Z,5.50
2022-11-26T03:12:53.954Z,5.50
2022-11-26T03:15:21.793Z,5.50
2022-11-26T03:17:48.944Z,5.60
2022-11-26T03:20:16.120Z,5.60
2022-11-26T03:22:43.368Z,5.60
2022-11-26T03:25:11.316Z,5.50
2022-11-26T03:27:38.359Z,5.50
2022-11-26T03:30:06.199Z,5.50
2022-11-26T03:32:33.030Z,5.50
2022-11-26T03:35:00.047Z,5.50
2022-11-26T03:37:26.840Z,5.50
2022-11-26T03:39:53.585Z,5.50
2022-11-26T03:42:20.349Z,5.50
2022-11-26T03:44:47.117Z,5.50
2022-11-26T03:47:13.928Z,5.60
2022-11-26T03:49:40.746Z,5.70
2022-11-26T03:52:07.512Z,5.80
2022-11-26T03:54:34.318Z,5.80
2022-11-26T03:57:01.165Z,5.80
2022-11-26T03:59:28.087Z,5.80
2022-11-26T04:01:55.100Z,5.80
2022-11-26T04:04:21.970Z,5.80
2022-11-26T04:06:48.851Z,5.80
2022-11-26T04:09:15.595Z,5.80
2022-11-26T04:11:42.568Z,5.80
2022-11-26T04:14:09.323Z,5.80
2022-11-26T04:16:36.424Z,5.70
2022-11-26T04:19:03.915Z,5.70
2022-11-26T04:21:30.729Z,5.70
2022-11-26T04:23:57.537Z,5.80
2022-11-26T04:26:24.332Z,5.80
2022-11-26T04:28:51.391Z,5.80
2022-11-26T04:31:18.530Z,5.90
2022-11-26T04:33:45.372Z,6.00
2022-11-26T04:36:12.716Z,5.90
2022-11-26T04:38:39.486Z,5.90
2022-11-26T04:41:06.577Z,5.90
2022-11-26T04:43:33.983Z,5.90
2022-11-26T04:46:01.008Z,5.90
2022-11-26T04:48:27.898Z,6.00
2022-11-26T04:50:54.741Z,6.00
2022-11-26T04:53:22.124Z,5.90
2022-11-26T04:55:51.495Z,5.90
2022-11-26T04:58:20.910Z,5.90
2022-11-26T05:00:50.943Z,6.00
2022-11-26T05:03:19.345Z,5.90
2022-11-26T05:05:47.180Z,5.90
2022-11-26T05:08:14.255Z,5.90
2022-11-26T05:10:41.111Z,6.00
2022-11-26T05:13:08.090Z,6.00
2022-11-26T05:15:34.939Z,6.00
2022-11-26T05:18:01.973Z,6.10
2022-11-26T05:20:28.738Z,6.00
2022-11-26T05:22:55.523Z,6.20
2022-11-26T05:25:22.423Z,6.10
2022-11-26T05:27:49.194Z,6.10
2022-11-26T05:30:16.291Z,6.20
2022-11-26T05:32:43.059Z,6.20
2022-11-26T05:35:10.301Z,6.20
2022-11-26T05:37:37.599Z,6.30
2022-11-26T05:40:06.035Z,6.30
2022-11-26T05:42:32.911Z,6.30
2022-11-26T05:44:59.863Z,6.40
2022-11-26T05:47:26.717Z,6.40
2022-11-26T05:49:53.738Z,6.40
2022-11-26T05:52:21.490Z,6.40
2022-11-26T05:54:48.421Z,6.40
2022-11-26T05:57:15.457Z,6.40
2022-11-26T05:59:42.459Z,6.50
2022-11-26T06:02:09.334Z,6.50
2022-11-26T06:04:36.499Z,6.50
2022-11-26T06:07:03.525Z,6.50
2022-11-26T06:09:30.309Z,6.50
2022-11-26T06:11:57.156Z,6.50
2022-11-26T06:14:23.955Z,6.50
2022-11-26T06:16:50.801Z,6.50
2022-11-26T06:19:17.701Z,6.40
2022-11-26T06:21:44.547Z,6.40
2022-11-26T06:24:11.815Z,6.40
2022-11-26T06:26:38.659Z,6.50
2022-11-26T06:29:05.605Z,6.50
2022-11-26T06:31:33.124Z,6.50
2022-11-26T06:34:00.123Z,6.50
2022-11-26T06:36:26.936Z,6.50
2022-11-26T06:38:53.844Z,6.50
2022-11-26T06:41:20.678Z,6.50
2022-11-26T06:43:47.726Z,6.50
2022-11-26T06:46:14.641Z,6.50
2022-11-26T06:48:41.766Z,6.50
2022-11-26T06:51:13.466Z,6.50
2022-11-26T06:53:40.809Z,6.50
2022-11-26T06:56:18.373Z,6.50
2022-11-26T06:58:46.870Z,6.50
2022-11-26T07:01:21.344Z,6.50
2022-11-26T07:03:48.388Z,6.60
2022-11-26T07:06:28.731Z,6.60
2022-11-26T07:08:58.616Z,6.60
2022-11-26T07:11:26.359Z,6.70
2022-11-26T07:13:53.566Z,6.60
2022-11-26T07:16:21.045Z,6.60
2022-11-26T07:18:51.495Z,6.60
2022-11-26T07:21:19.848Z,6.50
2022-11-26T07:23:47.976Z,6.60
2022-11-26T07:26:16.615Z,6.60
2022-11-26T07:28:43.810Z,6.50
2022-11-26T07:31:17.134Z,6.60
2022-11-26T07:33:45.938Z,6.50
2022-11-26T07:36:23.026Z,6.60
2022-11-26T07:38:50.156Z,6.60
2022-11-26T07:41:19.725Z,6.60
2022-11-26T07:43:46.952Z,6.60
2022-11-26T07:46:17.994Z,6.60
2022-11-26T07:48:45.355Z,6.60
2022-11-26T07:51:28.208Z,6.50
2022-11-26T07:53:58.943Z,6.50
2022-11-26T07:56:27.081Z,6.50
2022-11-26T07:58:54.190Z,6.50
2022-11-26T08:01:32.513Z,6.50
2022-11-26T08:04:03.540Z,6.50
2022-11-26T08:06:31.533Z,6.50
2022-11-26T08:09:03.862Z,6.50
2022-11-26T08:11:33.887Z,6.50
2022-11-26T08:14:07.744Z,6.60
2022-11-26T08:16:35.203Z,6.70
2022-11-26T08:19:11.727Z,6.80
2022-11-26T08:21:39.604Z,6.90
2022-11-26T08:24:12.368Z,6.90
2022-11-26T08:26:43.901Z,7.00
2022-11-26T08:29:12.872Z,7.00
2022-11-26T08:31:45.511Z,6.90
2022-11-26T08:34:16.357Z,6.80
2022-11-26T08:36:44.237Z,6.80
2022-11-26T08:39:17.535Z,6.80
2022-11-26T08:41:51.749Z,6.70
2022-11-26T08:44:20.551Z,6.70
2022-11-26T08:46:47.834Z,6.70
2022-11-26T08:49:15.529Z,6.70
2022-11-26T08:51:43.532Z,6.80
2022-11-26T08:54:11.110Z,6.80
2022-11-26T08:56:37.977Z,6.90
2022-11-26T08:59:04.832Z,6.90
2022-11-26T09:01:33.881Z,7.00
2022-11-26T09:04:03.485Z,7.10
2022-11-26T09:06:33.240Z,7.10
2022-11-26T09:09:14.231Z,7.20
2022-11-26T09:11:57.299Z,7.30
2022-11-26T09:14:28.042Z,7.30
2022-11-26T09:16:56.249Z,7.30
2022-11-26T09:19:24.708Z,7.40
2022-11-26T09:21:51.578Z,7.50
2022-11-26T09:24:18.521Z,7.60
2022-11-26T09:26:46.117Z,7.80
2022-11-26T09:29:16.140Z,7.80
2022-11-26T09:32:15.521Z,7.90
2022-11-26T09:34:32.307Z,8.00
2022-11-26T09:36:59.122Z,7.90
2022-11-26T09:39:25.930Z,7.80
2022-11-26T09:42:20.280Z,7.60
2022-11-26T09:45:25.719Z,7.50
2022-11-26T09:47:54.354Z,7.40
2022-11-26T09:50:32.075Z,7.50
2022-11-26T09:53:22.381Z,7.60
2022-11-26T09:55:52.570Z,7.70
2022-11-26T09:58:50.070Z,7.90
2022-11-26T10:01:22.683Z,8.10
2022-11-26T10:03:51.280Z,8.10
2022-11-26T10:06:58.598Z,8.20
2022-11-26T10:09:48.386Z,8.20
2022-11-26T10:13:23.333Z,8.20
2022-11-26T10:16:05.492Z,8.30
2022-11-26T10:18:45.580Z,8.40
2022-11-26T10:21:44.405Z,8.40
2022-11-26T10:24:41.987Z,8.50
2022-11-26T10:27:20.701Z,8.50
2022-11-26T10:30:01.718Z,8.50
2022-11-26T10:32:44.044Z,8.60
2022-11-26T10:35:18.893Z,8.50
2022-11-26T10:37:46.056Z,8.50
2022-11-26T10:40:32.388Z,8.60
2022-11-26T10:43:12.553Z,8.50
2022-11-26T10:45:57.174Z,8.50
2022-11-26T10:48:35.045Z,8.50
2022-11-26T10:51:25.127Z,8.50
2022-11-26T10:54:05.065Z,8.60
2022-11-26T10:56:35.861Z,8.70
2022-11-26T10:59:22.586Z,8.80
2022-11-26T11:01:54.305Z,8.90
2022-11-26T11:04:26.348Z,9.10
2022-11-26T11:06:53.810Z,9.00
2022-11-26T11:09:36.398Z,8.80
2022-11-26T11:12:12.169Z,8.90
2022-11-26T11:14:43.222Z,9.00
2022-11-26T11:17:37.914Z,9.00
2022-11-26T11:20:16.833Z,9.00
2022-11-26T11:22:47.838Z,8.90
2022-11-26T11:25:25.408Z,8.80
2022-11-26T11:28:01.368Z,8.60
2022-11-26T11:30:34.702Z,8.50
2022-11-26T11:33:25.820Z,8.40
2022-11-26T11:36:00.259Z,8.40
2022-11-26T11:38:31.617Z,8.40
2022-11-26T11:41:03.446Z,8.30
2022-11-26T11:43:36.992Z,8.30
2022-11-26T11:46:50.611Z,8.30
2022-11-26T11:49:44.684Z,8.20
2022-11-26T11:52:48.534Z,8.10
2022-11-26T11:55:44.098Z,8.00
2022-11-26T11:58:16.849Z,7.90
2022-11-26T12:01:10.257Z,7.80
2022-11-26T12:03:53.816Z,7.80
2022-11-26T12:06:41.334Z,7.70
2022-11-26T12:09:34.587Z,7.80
2022-11-26T12:12:25.805Z,7.70
2022-11-26T12:15:06.268Z,7.70
2022-11-26T12:18:03.247Z,7.70
2022-11-26T12:20:44.797Z,7.60
2022-11-26T12:23:28.290Z,7.60
2022-11-26T12:26:27.552Z,7.60
2022-11-26T12:29:18.398Z,7.70
2022-11-26T12:32:16.436Z,7.50
2022-11-26T12:35:10.623Z,7.50
2022-11-26T12:37:41.532Z,7.30
2022-11-26T12:40:40.705Z,7.30
2022-11-26T12:43:21.274Z,7.20
2022-11-26T12:46:16.101Z,7.30
2022-11-26T12:49:20.485Z,7.40
2022-11-26T12:52:47.348Z,7.60
2022-11-26T12:55:31.675Z,7.70
2022-11-26T12:58:08.681Z,7.70
2022-11-26T13:00:36.592Z,7.60
2022-11-26T13:03:06.697Z,7.40
2022-11-26T13:06:08.869Z,7.40
2022-11-26T13:08:47.741Z,7.40
2022-11-26T13:11:41.539Z,7.30
2022-11-26T13:14:45.967Z,7.40
2022-11-26T13:17:18.757Z,7.40
2022-11-26T13:19:55.101Z,7.40
2022-11-26T13:22:53.821Z,7.30
2022-11-26T13:26:09.285Z,7.20
2022-11-26T13:29:19.876Z,7.00
2022-11-26T14:07:05.814Z,7.20
2022-11-26T14:09:44.598Z,7.20
2022-11-26T14:12:19.948Z,7.20
2022-11-26T14:14:49.093Z,7.20
2022-11-26T14:17:26.584Z,7.10
2022-11-26T14:19:58.441Z,7.10
2022-11-26T14:22:35.411Z,7.10
2022-11-26T14:25:09.691Z,7.10
2022-11-26T14:27:48.468Z,7.00
2022-11-26T14:30:22.835Z,7.10
2022-11-26T14:33:23.542Z,7.00
2022-11-26T14:35:56.661Z,6.90
2022-11-26T14:38:31.386Z,6.90
2022-11-26T14:41:02.457Z,6.90
2022-11-26T14:43:29.835Z,6.80
2022-11-26T14:46:06.191Z,6.80
2022-11-26T14:48:40.597Z,6.90
2022-11-26T14:51:13.373Z,6.90
2022-11-26T14:53:48.710Z,7.00
2022-11-26T14:56:18.735Z,6.90
2022-11-26T14:58:54.424Z,6.90
2022-11-26T15:01:25.082Z,6.80
2022-11-26T15:04:06.674Z,6.80
2022-11-26T15:06:42.822Z,6.80
2022-11-26T15:09:16.574Z,6.60
2022-11-26T15:12:12.089Z,6.70
2022-11-26T15:14:54.550Z,6.60
2022-11-26T15:17:26.229Z,6.50
2022-11-26T15:19:56.731Z,6.40
2022-11-26T15:22:38.994Z,6.40
2022-11-26T15:25:20.051Z,6.40
2022-11-26T15:28:18.665Z,6.40
2022-11-26T15:31:01.320Z,6.40
2022-11-26T15:33:31.892Z,6.30
2022-11-26T15:35:59.191Z,6.30
2022-11-26T15:38:31.793Z,6.30
2022-11-26T15:41:19.705Z,6.20
2022-11-26T15:43:51.734Z,6.10
2022-11-26T15:46:32.504Z,6.10
2022-11-26T15:49:05.614Z,6.00
2022-11-26T15:51:49.248Z,6.00
2022-11-26T15:55:10.831Z,6.00
2022-11-26T15:57:40.124Z,5.90
2022-11-26T16:00:20.248Z,5.90
2022-11-26T16:02:47.208Z,5.90
2022-11-26T16:05:39.338Z,6.00
2022-11-26T16:08:24.056Z,6.00
2022-11-26T16:11:03.065Z,6.00
2022-11-26T16:13:32.368Z,6.00
2022-11-26T16:16:16.817Z,6.00
2022-11-26T16:18:56.074Z,6.10
2022-11-26T16:21:30.274Z,6.00
2022-11-26T16:24:07.617Z,5.90
2022-11-26T16:27:25.035Z,5.80
2022-11-26T16:29:51.884Z,5.80
2022-11-26T16:32:19.192Z,5.70
2022-11-26T16:34:46.062Z,5.70
2022-11-26T16:37:27.458Z,5.60
2022-11-26T16:40:13.323Z,5.60
2022-11-26T16:42:40.138Z,5.50
2022-11-26T16:45:08.931Z,5.40
2022-11-26T16:47:49.777Z,5.30
2022-11-26T16:50:26.070Z,5.10
2022-11-26T16:52:54.477Z,5.00
2022-11-26T16:55:26.706Z,4.90
2022-11-26T16:57:58.131Z,4.80
2022-11-26T17:00:27.115Z,4.80
2022-11-26T17:02:54.787Z,4.70
2022-11-26T17:05:22.622Z,4.60
2022-11-26T17:07:57.025Z,4.50
2022-11-26T17:10:31.024Z,4.40
2022-11-26T17:12:58.475Z,4.40
2022-11-26T17:15:27.382Z,4.30
2022-11-26T17:18:02.919Z,4.30
2022-11-26T17:20:29.758Z,4.30
2022-11-26T17:22:56.562Z,4.30
2022-11-26T17:25:23.506Z,4.30
2022-11-26T17:27:53.243Z,4.30
2022-11-26T17:30:24.075Z,4.20
2022-11-26T17:32:51.314Z,4.20
2022-11-26T17:35:18.839Z,4.20
2022-11-26T17:37:45.976Z,4.20
2022-11-26T17:40:22.811Z,4.30
2022-11-26T17:42:50.630Z,4.20
2022-11-26T17:45:18.760Z,4.20
2022-11-26T17:47:46.463Z,4.30
2022-11-26T17:50:22.957Z,4.20
2022-11-26T17:52:50.576Z,4.20
2022-11-26T17:55:19.295Z,4.30
2022-11-26T17:57:46.126Z,4.30
2022-11-26T18:00:17.983Z,4.30
2022-11-26T18:02:46.230Z,4.30
2022-11-26T18:05:13.995Z,4.30
2022-11-26T18:07:41.256Z,4.40
2022-11-26T18:10:15.432Z,4.30
2022-11-26T18:12:43.499Z,4.30
2022-11-26T18:15:22.000Z,4.20
2022-11-26T18:17:51.773Z,4.20
2022-11-26T18:20:21.964Z,4.20
2022-11-26T18:22:58.492Z,4.10
2022-11-26T18:25:27.034Z,4.00
2022-11-26T18:27:54.385Z,4.00
2022-11-26T18:30:21.407Z,4.00
2022-11-26T18:32:51.346Z,4.00
2022-11-26T18:35:18.386Z,3.90
2022-11-26T18:37:45.425Z,3.90
2022-11-26T18:40:17.032Z,3.90
2022-11-26T18:42:44.391Z,3.80
2022-11-26T18:45:15.061Z,3.80
2022-11-26T18:47:42.399Z,3.70
2022-11-26T18:50:09.916Z,3.70
2022-11-26T18:52:36.797Z,3.70
2022-11-26T18:55:07.256Z,3.60
2022-11-26T18:57:34.048Z,3.60
2022-11-26T19:00:00.914Z,3.60
2022-11-26T19:02:27.780Z,3.50
2022-11-26T19:04:54.640Z,3.50
2022-11-26T19:07:21.428Z,3.40
2022-11-26T19:09:48.814Z,3.40
2022-11-26T19:12:15.643Z,3.30
2022-11-26T19:14:42.467Z,3.30
2022-11-26T19:17:12.403Z,3.20
2022-11-26T19:19:42.387Z,3.00
2022-11-26T19:22:09.236Z,3.00
2022-11-26T19:24:36.095Z,2.90
2022-11-26T19:27:02.890Z,2.80
2022-11-26T19:29:29.644Z,2.80
2022-11-26T19:31:56.442Z,2.80
2022-11-26T19:34:23.241Z,2.80
2022-11-26T19:36:53.161Z,2.90
2022-11-26T19:39:20.242Z,2.90
2022-11-26T19:41:47.020Z,2.90
2022-11-26T19:44:13.879Z,2.90
2022-11-26T19:46:41.783Z,2.80
2022-11-26T19:49:12.221Z,2.70
2022-11-26T19:51:39.424Z,2.60
2022-11-26T19:54:07.143Z,2.60
2022-11-26T19:56:35.023Z,2.50
2022-11-26T19:59:02.478Z,2.50
2022-11-26T20:01:33.279Z,2.50
2022-11-26T20:04:03.985Z,2.50
2022-11-26T20:06:33.870Z,2.60
2022-11-26T20:09:04.102Z,2.60
2022-11-26T20:11:30.989Z,2.60
2022-11-26T20:13:58.675Z,2.70
2022-11-26T20:16:29.900Z,2.80
2022-11-26T20:18:58.838Z,2.80
2022-11-26T20:21:29.296Z,2.80
2022-11-26T20:24:00.608Z,2.80
2022-11-26T20:26:35.101Z,2.80
2022-11-26T20:29:06.510Z,2.90
2022-11-26T20:31:34.791Z,3.00
2022-11-26T20:34:04.157Z,3.00
2022-11-26T20:36:31.956Z,3.10
2022-11-26T20:39:01.997Z,3.10
2022-11-26T20:41:30.342Z,3.30
2022-11-26T20:43:59.346Z,3.20
2022-11-26T20:46:28.343Z,3.20
2022-11-26T20:48:56.544Z,3.20
2022-11-26T20:51:24.515Z,3.20
2022-11-26T20:53:58.469Z,3.30
2022-11-26T20:56:25.456Z,3.30
2022-11-26T20:58:52.980Z,3.30
2022-11-26T21:01:24.071Z,3.30
2022-11-26T21:03:52.563Z,3.40
2022-11-26T21:06:29.039Z,3.50
2022-11-26T21:09:00.761Z,3.50
2022-11-26T21:11:28.526Z,3.60
2022-11-26T21:13:55.356Z,3.70
2022-11-26T21:16:23.288Z,3.80
2022-11-26T21:18:54.196Z,3.90
2022-11-26T21:21:21.613Z,4.00
2022-11-26T21:23:48.521Z,4.00
2022-11-26T21:26:25.733Z,4.10
2022-11-26T21:28:58.947Z,4.10
2022-11-26T21:31:29.670Z,4.20
2022-11-26T21:34:00.875Z,4.20
2022-11-26T21:36:30.136Z,4.30
2022-11-26T21:38:57.273Z,4.30
2022-11-26T21:41:25.566Z,4.30
2022-11-26T21:43:52.592Z,4.30
2022-11-26T21:46:23.962Z,4.40
2022-11-26T21:48:53.213Z,4.40
2022-11-26T21:51:20.713Z,4.40
2022-11-26T21:53:49.755Z,4.50
2022-11-26T21:56:21.995Z,4.50
2022-11-26T21:58:50.251Z,4.50
2022-11-26T22:01:31.651Z,4.50
2022-11-26T22:04:10.428Z,4.50
2022-11-26T22:06:37.598Z,4.50
2022-11-26T22:09:06.044Z,4.60
2022-11-26T22:11:37.510Z,4.60
2022-11-26T22:14:05.746Z,4.60
2022-11-26T22:16:32.916Z,4.60
2022-11-26T22:19:01.550Z,4.60
2022-11-26T22:21:33.464Z,4.60
2022-11-26T22:24:02.862Z,4.60
2022-11-26T22:26:31.157Z,4.60
2022-11-26T22:28:59.340Z,4.70
2022-11-26T22:31:35.850Z,4.60
2022-11-26T22:34:10.129Z,4.60
2022-11-26T22:36:38.784Z,4.60
2022-11-26T22:39:10.904Z,4.50
2022-11-26T22:41:40.810Z,4.50
2022-11-26T22:44:08.343Z,4.50
2022-11-26T22:46:38.131Z,4.60
2022-11-26T22:49:06.066Z,4.50
2022-11-26T22:51:36.481Z,4.50
2022-11-26T22:54:07.377Z,4.50
2022-11-26T22:56:39.750Z,4.50
2022-11-26T22:59:09.152Z,4.50
2022-11-26T23:01:37.132Z,4.50
2022-11-26T23:04:08.014Z,4.50
2022-11-26T23:06:36.431Z,4.50
2022-11-26T23:09:06.800Z,4.40
2022-11-26T23:11:40.375Z,4.40
2022-11-26T23:14:09.540Z,4.40
2022-11-26T23:16:39.082Z,4.30
2022-11-26T23:19:07.150Z,4.30
2022-11-26T23:21:39.939Z,4.30
2022-11-26T23:24:07.820Z,4.20
2022-11-26T23:26:37.406Z,4.30
2022-11-26T23:29:06.133Z,4.20
2022-11-26T23:31:40.408Z,4.20
2022-11-26T23:34:08.753Z,4.20
2022-11-26T23:36:37.177Z,4.30
2022-11-26T23:39:07.226Z,4.20
2022-11-26T23:41:34.270Z,4.30
2022-11-26T23:44:01.063Z,4.30
2022-11-26T23:46:31.224Z,4.30
2022-11-26T23:48:58.706Z,4.20
2022-11-26T23:51:32.007Z,4.20
2022-11-26T23:53:58.861Z,4.20
2022-11-26T23:56:31.643Z,4.20
2022-11-26T23:59:02.607Z,4.20
